createdAt,value
2022-12-27T00:02:28.196Z,1.10
2022-12-27T00:10:03.641Z,1.08
2022-12-27T00:17:37.476Z,0.95
2022-12-27T00:25:12.770Z,0.63
2022-12-27T00:32:46.730Z,1.00
2022-12-27T00:40:21.890Z,3.00
2022-12-27T00:47:55.833Z,1.00
2022-12-27T00:55:31.215Z,0.73
2022-12-27T01:03:05.072Z,1.00
2022-12-27T01:10:42.005Z,0.83
2022-12-27T01:18:15.889Z,2.20
2022-12-27T01:25:52.322Z,2.40
2022-12-27T01:33:26.193Z,1.20
2022-12-27T01:41:21.500Z,1.23
2022-12-27T01:56:32.979Z,1.73
2022-12-27T02:04:09.995Z,1.33
2022-12-27T02:11:56.447Z,1.52
2022-12-27T02:19:40.367Z,1.08
2022-12-27T02:27:30.751Z,0.70
2022-12-27T02:35:15.840Z,1.05
2022-12-27T02:43:09.973Z,1.70
2022-12-27T02:51:15.063Z,1.08
2022-12-27T02:59:04.389Z,1.70
2022-12-27T03:06:53.876Z,2.05
2022-12-27T03:14:51.006Z,1.20
2022-12-27T03:22:47.644Z,1.35
2022-12-27T03:30:39.835Z,1.75
2022-12-27T03:38:15.981Z,1.33
2022-12-27T03:46:14.345Z,1.30
2022-12-27T03:53:53.322Z,1.58
2022-12-27T04:01:27.284Z,1.02
2022-12-27T04:09:20.371Z,1.65
2022-12-27T04:17:11.588Z,1.55
2022-12-27T04:25:04.636Z,1.63
2022-12-27T04:32:55.975Z,3.17
2022-12-27T04:40:48.697Z,1.85
2022-12-27T04:48:39.818Z,1.40
2022-12-27T04:56:15.190Z,1.30
2022-12-27T05:03:51.940Z,1.73
2022-12-27T05:11:45.297Z,1.63
2022-12-27T05:19:19.467Z,1.63
2022-12-27T05:26:57.011Z,1.20
2022-12-27T05:34:31.866Z,1.75
2022-12-27T05:42:07.927Z,1.48
2022-12-27T05:49:42.046Z,1.20
2022-12-27T05:57:17.562Z,1.35
2022-12-27T06:04:51.645Z,1.17
2022-12-27T06:12:26.846Z,2.15
2022-12-27T06:20:00.704Z,1.48
2022-12-27T06:27:36.325Z,1.27
2022-12-27T06:35:11.892Z,1.25
2022-12-27T06:42:47.053Z,1.30
2022-12-27T06:50:21.305Z,1.70
2022-12-27T06:57:56.724Z,1.20
2022-12-27T07:05:30.894Z,1.30
2022-12-27T07:13:06.194Z,1.55
2022-12-27T07:20:39.988Z,2.03
2022-12-27T07:28:15.456Z,1.23
2022-12-27T07:35:49.500Z,1.42
2022-12-27T07:43:24.892Z,1.13
2022-12-27T07:50:59.001Z,1.17
2022-12-27T07:58:37.255Z,1.38
2022-12-27T08:06:22.551Z,1.15
2022-12-27T08:13:58.308Z,1.42
2022-12-27T08:21:32.300Z,3.45
2022-12-27T08:29:07.609Z,1.47
2022-12-27T08:36:57.209Z,1.35
2022-12-27T08:44:32.551Z,1.60
2022-12-27T08:52:06.822Z,1.38
2022-12-27T08:59:42.298Z,1.63
2022-12-27T09:07:16.460Z,1.65
2022-12-27T09:14:51.649Z,2.72
2022-12-27T09:22:25.534Z,1.52
2022-12-27T09:30:00.744Z,1.60
2022-12-27T09:37:35.784Z,1.95
2022-12-27T09:45:15.463Z,3.08
2022-12-27T09:52:58.075Z,2.33
2022-12-27T10:00:35.159Z,2.65
2022-12-27T10:08:26.059Z,2.10
2022-12-27T10:16:17.190Z,2.03
2022-12-27T10:23:57.164Z,2.30
2022-12-27T10:31:33.467Z,2.38
2022-12-27T10:39:16.960Z,2.17
2022-12-27T10:46:53.964Z,2.28
2022-12-27T10:54:29.911Z,2.15
2022-12-27T11:02:19.572Z,2.10
2022-12-27T11:10:07.381Z,1.90
2022-12-27T11:17:45.911Z,1.80
2022-12-27T11:25:20.753Z,2.40
2022-12-27T11:32:56.748Z,3.08
2022-12-27T11:40:35.080Z,2.60
2022-12-27T11:48:22.300Z,2.97
2022-12-27T11:56:14.279Z,2.55
2022-12-27T12:04:20.434Z,2.55
2022-12-27T12:12:12.826Z,2.47
2022-12-27T12:20:23.882Z,2.60
2022-12-27T12:28:47.191Z,3.00
2022-12-27T12:36:33.763Z,2.67
2022-12-27T12:44:48.528Z,2.22
2022-12-27T12:52:53.904Z,2.88
2022-12-27T13:00:44.628Z,2.90
2022-12-27T13:08:26.813Z,2.28
2022-12-27T13:16:17.792Z,2.35
2022-12-27T13:24:02.144Z,2.22
2022-12-27T13:31:45.660Z,4.27
2022-12-27T13:39:37.100Z,2.67
2022-12-27T13:47:35.249Z,2.70
2022-12-27T13:55:38.047Z,2.30
2022-12-27T14:03:44.351Z,2.75
2022-12-27T14:11:31.814Z,2.15
2022-12-27T14:19:24.436Z,2.30
2022-12-27T14:27:55.958Z,2.30
2022-12-27T14:36:10.074Z,2.28
2022-12-27T14:44:25.200Z,2.00
2022-12-27T14:52:24.936Z,2.37
2022-12-27T15:00:04.698Z,2.85
2022-12-27T15:07:58.962Z,2.40
2022-12-27T15:15:55.298Z,2.35
2022-12-27T15:23:37.299Z,2.35
2022-12-27T15:31:22.455Z,2.22
2022-12-27T15:38:56.825Z,2.92
2022-12-27T15:47:07.871Z,3.67
2022-12-27T15:54:59.054Z,2.97
2022-12-27T16:02:39.121Z,2.45
2022-12-27T16:10:50.673Z,3.25
2022-12-27T16:18:48.047Z,3.00
2022-12-27T16:26:25.464Z,2.70
2022-12-27T16:34:11.794Z,2.50
2022-12-27T16:42:03.258Z,2.67
2022-12-27T16:50:01.931Z,3.00
2022-12-27T16:57:42.161Z,2.83
2022-12-27T17:05:41.926Z,3.10
2022-12-27T17:13:28.384Z,2.83
2022-12-27T17:21:08.260Z,2.53
2022-12-27T17:28:52.516Z,3.03
2022-12-27T17:36:44.458Z,3.30
2022-12-27T17:44:40.781Z,3.40
2022-12-27T17:52:39.480Z,2.92
2022-12-27T18:00:26.037Z,3.65
2022-12-27T18:08:07.264Z,3.60
2022-12-27T18:15:46.190Z,3.50
2022-12-27T18:23:21.660Z,3.70
2022-12-27T18:31:01.478Z,3.92
2022-12-27T18:38:41.224Z,4.40
2022-12-27T18:46:18.308Z,4.10
2022-12-27T18:53:53.730Z,3.95
2022-12-27T19:01:31.944Z,5.07
2022-12-27T19:09:07.231Z,5.25
2022-12-27T19:16:41.171Z,4.75
2022-12-27T19:24:32.479Z,3.97
2022-12-27T19:32:10.075Z,6.38
2022-12-27T19:39:48.194Z,6.25
2022-12-27T19:47:22.410Z,5.88
2022-12-27T19:55:02.700Z,6.90
2022-12-27T20:02:36.651Z,6.82
2022-12-27T20:10:17.881Z,6.95
2022-12-27T20:17:52.341Z,6.38
2022-12-27T20:33:02.809Z,8.07
2022-12-27T20:40:39.076Z,7.60
2022-12-27T20:48:13.012Z,7.20
2022-12-27T20:55:59.231Z,7.20
2022-12-27T21:03:33.252Z,6.63
2022-12-27T21:11:10.296Z,7.07
2022-12-27T21:18:45.719Z,7.50
2022-12-27T21:26:23.623Z,7.13
2022-12-27T21:33:57.903Z,7.53
2022-12-27T21:41:35.171Z,7.78
2022-12-27T21:49:10.699Z,8.20
2022-12-27T21:56:45.932Z,6.78
2022-12-27T22:04:20.941Z,6.68
2022-12-27T22:11:56.266Z,6.80
2022-12-27T22:19:30.209Z,5.85
2022-12-27T22:27:05.464Z,5.07
2022-12-27T22:34:39.989Z,5.40
2022-12-27T22:42:15.523Z,4.95
2022-12-27T22:49:49.447Z,3.65
2022-12-27T22:57:24.779Z,2.43
2022-12-27T23:04:58.634Z,2.83
2022-12-27T23:12:34.011Z,3.37
2022-12-27T23:20:09.560Z,2.67
2022-12-27T23:27:44.880Z,2.50
2022-12-27T23:35:19.214Z,3.05
2022-12-27T23:42:54.640Z,3.08
2022-12-27T23:50:28.580Z,3.38
2022-12-27T23:58:03.920Z,2.50
